sensor_id;sensor_type;location;lat;lon;timestamp;pressure;altitude;pressure_sealevel;temperature;humidity
49979;BME280;35869;50.990;6.962;2023-08-08T00:04:06;101237.38;;;14.59;100.00
49979;BME280;35869;50.990;6.962;2023-08-08T00:09:07;101240.84;;;14.59;100.00
49979;BME280;35869;50.990;6.962;2023-08-08T00:14:07;101227.19;;;14.54;100.00
49979;BME280;35869;50.990;6.962;2023-08-08T00:19:07;101229.00;;;14.52;100.00
49979;BME280;35869;50.990;6.962;2023-08-08T00:24:07;101222.94;;;14.52;100.00
49979;BME280;35869;50.990;6.962;2023-08-08T00:29:07;101220.50;;;14.49;100.00
49979;BME280;35869;50.990;6.962;2023-08-08T00:34:08;101213.84;;;14.41;100.00
49979;BME280;35869;50.990;6.962;2023-08-08T00:39:08;101220.19;;;14.37;100.00
49979;BME280;35869;50.990;6.962;2023-08-08T00:44:09;101212.56;;;14.33;100.00
49979;BME280;35869;50.990;6.962;2023-08-08T00:49:09;101216.13;;;14.32;100.00
49979;BME280;35869;50.990;6.962;2023-08-08T00:54:09;101208.66;;;14.24;100.00
49979;BME280;35869;50.990;6.962;2023-08-08T00:59:11;101200.06;;;14.22;100.00
49979;BME280;35869;50.990;6.962;2023-08-08T01:04:13;101207.38;;;14.16;100.00
49979;BME280;35869;50.990;6.962;2023-08-08T01:09:21;101210.28;;;14.09;100.00
49979;BME280;35869;50.990;6.962;2023-08-08T01:14:25;101215.66;;;14.06;100.00
49979;BME280;35869;50.990;6.962;2023-08-08T01:19:29;101207.91;;;14.05;100.00
49979;BME280;35869;50.990;6.962;2023-08-08T01:24:30;101216.16;;;13.97;100.00
49979;BME280;35869;50.990;6.962;2023-08-08T01:29:31;101213.44;;;13.99;100.00
49979;BME280;35869;50.990;6.962;2023-08-08T01:34:31;101209.16;;;13.98;100.00
49979;BME280;35869;50.990;6.962;2023-08-08T01:39:31;101207.00;;;13.88;100.00
49979;BME280;35869;50.990;6.962;2023-08-08T01:44:32;101208.41;;;13.96;100.00
49979;BME280;35869;50.990;6.962;2023-08-08T01:49:32;101200.25;;;14.02;100.00
49979;BME280;35869;50.990;6.962;2023-08-08T01:54:33;101199.69;;;13.95;100.00
49979;BME280;35869;50.990;6.962;2023-08-08T01:59:33;101198.16;;;13.91;100.00
49979;BME280;35869;50.990;6.962;2023-08-08T02:04:33;101201.63;;;13.92;100.00
49979;BME280;35869;50.990;6.962;2023-08-08T02:09:33;101200.06;;;13.87;100.00
49979;BME280;35869;50.990;6.962;2023-08-08T02:14:33;101199.22;;;13.87;100.00
49979;BME280;35869;50.990;6.962;2023-08-08T02:19:34;101191.25;;;13.90;100.00
49979;BME280;35869;50.990;6.962;2023-08-08T02:24:34;101174.25;;;13.81;100.00
49979;BME280;35869;50.990;6.962;2023-08-08T02:29:34;101171.97;;;13.75;100.00
49979;BME280;35869;50.990;6.962;2023-08-08T02:34:35;101167.34;;;13.80;100.00
49979;BME280;35869;50.990;6.962;2023-08-08T02:39:35;101163.13;;;13.78;100.00
49979;BME280;35869;50.990;6.962;2023-08-08T02:44:35;101160.75;;;13.73;100.00
49979;BME280;35869;50.990;6.962;2023-08-08T02:49:35;101145.13;;;13.72;100.00
49979;BME280;35869;50.990;6.962;2023-08-08T02:54:37;101136.44;;;13.71;100.00
49979;BME280;35869;50.990;6.962;2023-08-08T02:59:38;101153.22;;;13.67;100.00
49979;BME280;35869;50.990;6.962;2023-08-08T03:04:38;101155.00;;;13.67;100.00
49979;BME280;35869;50.990;6.962;2023-08-08T03:09:38;101149.50;;;13.54;100.00
49979;BME280;35869;50.990;6.962;2023-08-08T03:14:38;101137.25;;;13.56;100.00
49979;BME280;35869;50.990;6.962;2023-08-08T03:19:39;101131.41;;;13.51;100.00
49979;BME280;35869;50.990;6.962;2023-08-08T03:24:39;101129.94;;;13.45;100.00
49979;BME280;35869;50.990;6.962;2023-08-08T03:29:39;101128.38;;;13.41;100.00
49979;BME280;35869;50.990;6.962;2023-08-08T03:34:39;101133.06;;;13.34;100.00
49979;BME280;35869;50.990;6.962;2023-08-08T03:39:39;101127.84;;;13.34;100.00
49979;BME280;35869;50.990;6.962;2023-08-08T03:44:40;101127.84;;;13.34;100.00
49979;BME280;35869;50.990;6.962;2023-08-08T03:49:40;101125.41;;;13.31;100.00
49979;BME280;35869;50.990;6.962;2023-08-08T03:54:40;101122.31;;;13.23;100.00
49979;BME280;35869;50.990;6.962;2023-08-08T03:59:40;101127.72;;;13.19;100.00
49979;BME280;35869;50.990;6.962;2023-08-08T04:04:41;101124.00;;;13.24;100.00
49979;BME280;35869;50.990;6.962;2023-08-08T04:09:41;101135.34;;;13.23;100.00
49979;BME280;35869;50.990;6.962;2023-08-08T04:14:41;101140.72;;;13.20;100.00
49979;BME280;35869;50.990;6.962;2023-08-08T04:19:41;101142.63;;;13.17;100.00
49979;BME280;35869;50.990;6.962;2023-08-08T04:24:41;101154.19;;;13.11;100.00
49979;BME280;35869;50.990;6.962;2023-08-08T04:29:42;101148.75;;;13.16;100.00
49979;BME280;35869;50.990;6.962;2023-08-08T04:34:42;101135.63;;;13.17;100.00
49979;BME280;35869;50.990;6.962;2023-08-08T04:39:42;101141.00;;;13.14;100.00
49979;BME280;35869;50.990;6.962;2023-08-08T04:44:42;101135.72;;;13.16;100.00
49979;BME280;35869;50.990;6.962;2023-08-08T04:49:43;101144.50;;;13.13;100.00
49979;BME280;35869;50.990;6.962;2023-08-08T04:54:43;101146.22;;;13.14;100.00
49979;BME280;35869;50.990;6.962;2023-08-08T04:59:43;101140.00;;;13.17;100.00
49979;BME280;35869;50.990;6.962;2023-08-08T05:04:43;101135.25;;;13.07;100.00
49979;BME280;35869;50.990;6.962;2023-08-08T05:09:43;101131.41;;;13.15;100.00
49979;BME280;35869;50.990;6.962;2023-08-08T05:14:44;101131.81;;;13.24;100.00
49979;BME280;35869;50.990;6.962;2023-08-08T05:19:45;101128.03;;;13.31;100.00
49979;BME280;35869;50.990;6.962;2023-08-08T05:24:45;101128.69;;;13.35;100.00
49979;BME280;35869;50.990;6.962;2023-08-08T05:29:45;101118.97;;;13.39;100.00
49979;BME280;35869;50.990;6.962;2023-08-08T05:34:45;101119.72;;;13.41;100.00
49979;BME280;35869;50.990;6.962;2023-08-08T05:39:49;101112.66;;;13.43;100.00
49979;BME280;35869;50.990;6.962;2023-08-08T05:44:49;101119.72;;;13.58;100.00
49979;BME280;35869;50.990;6.962;2023-08-08T05:49:50;101112.50;;;13.63;100.00
49979;BME280;35869;50.990;6.962;2023-08-08T05:54:50;101114.03;;;13.67;100.00
49979;BME280;35869;50.990;6.962;2023-08-08T05:59:51;101122.94;;;13.63;100.00
49979;BME280;35869;50.990;6.962;2023-08-08T06:04:51;101121.16;;;13.81;100.00
49979;BME280;35869;50.990;6.962;2023-08-08T06:09:51;101126.78;;;13.91;100.00
49979;BME280;35869;50.990;6.962;2023-08-08T06:14:53;101129.44;;;13.89;100.00
49979;BME280;35869;50.990;6.962;2023-08-08T06:19:53;101138.72;;;13.95;100.00
49979;BME280;35869;50.990;6.962;2023-08-08T06:24:53;101138.78;;;14.10;100.00
49979;BME280;35869;50.990;6.962;2023-08-08T06:29:53;101138.88;;;14.09;100.00
49979;BME280;35869;50.990;6.962;2023-08-08T06:34:54;101153.91;;;14.21;100.00
49979;BME280;35869;50.990;6.962;2023-08-08T06:39:54;101143.88;;;14.13;100.00
49979;BME280;35869;50.990;6.962;2023-08-08T06:44:54;101136.97;;;14.28;100.00
49979;BME280;35869;50.990;6.962;2023-08-08T06:49:54;101142.97;;;14.30;100.00
49979;BME280;35869;50.990;6.962;2023-08-08T06:54:54;101142.41;;;14.41;100.00
49979;BME280;35869;50.990;6.962;2023-08-08T06:59:55;101146.63;;;14.44;100.00
49979;BME280;35869;50.990;6.962;2023-08-08T07:04:55;101138.91;;;14.58;100.00
49979;BME280;35869;50.990;6.962;2023-08-08T07:09:55;101133.19;;;14.67;100.00
49979;BME280;35869;50.990;6.962;2023-08-08T07:14:55;101126.84;;;14.71;100.00
49979;BME280;35869;50.990;6.962;2023-08-08T07:19:57;101132.50;;;14.95;100.00
49979;BME280;35869;50.990;6.962;2023-08-08T07:24:57;101139.25;;;14.99;100.00
49979;BME280;35869;50.990;6.962;2023-08-08T07:29:57;101134.78;;;15.01;100.00
49979;BME280;35869;50.990;6.962;2023-08-08T07:34:58;101144.13;;;15.21;100.00
49979;BME280;35869;50.990;6.962;2023-08-08T07:39:59;101141.94;;;15.13;100.00
49979;BME280;35869;50.990;6.962;2023-08-08T07:44:59;101140.47;;;15.24;100.00
49979;BME280;35869;50.990;6.962;2023-08-08T07:49:59;101133.69;;;15.35;100.00
49979;BME280;35869;50.990;6.962;2023-08-08T07:54:59;101120.81;;;15.46;100.00
49979;BME280;35869;50.990;6.962;2023-08-08T08:00:00;101129.25;;;15.52;100.00
49979;BME280;35869;50.990;6.962;2023-08-08T08:05:00;101128.06;;;15.57;100.00
49979;BME280;35869;50.990;6.962;2023-08-08T08:10:02;101129.19;;;15.97;100.00
49979;BME280;35869;50.990;6.962;2023-08-08T08:15:03;101128.81;;;16.04;100.00
49979;BME280;35869;50.990;6.962;2023-08-08T08:20:06;101128.78;;;15.75;100.00
49979;BME280;35869;50.990;6.962;2023-08-08T08:25:06;101108.88;;;16.01;100.00
49979;BME280;35869;50.990;6.962;2023-08-08T08:30:12;101114.78;;;16.19;100.00
49979;BME280;35869;50.990;6.962;2023-08-08T08:35:13;101116.66;;;16.31;100.00
49979;BME280;35869;50.990;6.962;2023-08-08T08:40:13;101119.84;;;16.36;100.00
49979;BME280;35869;50.990;6.962;2023-08-08T08:45:14;101122.66;;;16.19;100.00
49979;BME280;35869;50.990;6.962;2023-08-08T08:50:17;101119.06;;;16.34;100.00
49979;BME280;35869;50.990;6.962;2023-08-08T08:55:18;101121.13;;;16.43;100.00
49979;BME280;35869;50.990;6.962;2023-08-08T09:00:18;101123.09;;;16.40;100.00
49979;BME280;35869;50.990;6.962;2023-08-08T09:05:18;101120.22;;;16.30;100.00
49979;BME280;35869;50.990;6.962;2023-08-08T09:10:20;101126.28;;;16.31;100.00
49979;BME280;35869;50.990;6.962;2023-08-08T09:15:20;101114.44;;;16.52;100.00
49979;BME280;35869;50.990;6.962;2023-08-08T09:20:20;101113.25;;;16.43;100.00
49979;BME280;35869;50.990;6.962;2023-08-08T09:25:20;101119.34;;;16.30;100.00
49979;BME280;35869;50.990;6.962;2023-08-08T09:30:21;101111.97;;;16.36;100.00
49979;BME280;35869;50.990;6.962;2023-08-08T09:35:22;101113.34;;;16.27;100.00
49979;BME280;35869;50.990;6.962;2023-08-08T09:40:23;101117.41;;;16.19;100.00
49979;BME280;35869;50.990;6.962;2023-08-08T09:45:23;101111.41;;;16.31;100.00
49979;BME280;35869;50.990;6.962;2023-08-08T09:50:24;101114.97;;;16.30;100.00
49979;BME280;35869;50.990;6.962;2023-08-08T09:55:28;101122.97;;;16.41;99.14
49979;BME280;35869;50.990;6.962;2023-08-08T10:00:29;101115.03;;;16.43;100.00
49979;BME280;35869;50.990;6.962;2023-08-08T10:05:30;101118.75;;;16.53;99.85
49979;BME280;35869;50.990;6.962;2023-08-08T10:10:31;101119.63;;;16.39;100.00
49979;BME280;35869;50.990;6.962;2023-08-08T10:15:31;101120.91;;;16.46;100.00
49979;BME280;35869;50.990;6.962;2023-08-08T10:20:32;101113.78;;;16.63;100.00
49979;BME280;35869;50.990;6.962;2023-08-08T10:25:36;101121.63;;;16.91;98.16
49979;BME280;35869;50.990;6.962;2023-08-08T10:30:43;101119.56;;;16.82;100.00
49979;BME280;35869;50.990;6.962;2023-08-08T10:35:54;101108.59;;;16.90;100.00
49979;BME280;35869;50.990;6.962;2023-08-08T10:40:58;101107.63;;;17.18;94.85
49979;BME280;35869;50.990;6.962;2023-08-08T10:46:02;101102.69;;;17.13;96.31
49979;BME280;35869;50.990;6.962;2023-08-08T10:51:05;101102.41;;;17.30;96.04
49979;BME280;35869;50.990;6.962;2023-08-08T10:56:05;101115.63;;;17.29;93.43
49979;BME280;35869;50.990;6.962;2023-08-08T11:01:15;101121.03;;;17.53;95.68
49979;BME280;35869;50.990;6.962;2023-08-08T11:06:16;101117.56;;;17.52;93.13
49979;BME280;35869;50.990;6.962;2023-08-08T11:11:16;101112.25;;;17.67;91.99
49979;BME280;35869;50.990;6.962;2023-08-08T11:16:27;101116.25;;;17.59;97.06
49979;BME280;35869;50.990;6.962;2023-08-08T11:21:27;101112.09;;;17.30;92.57
49979;BME280;35869;50.990;6.962;2023-08-08T11:26:28;101112.53;;;17.37;95.76
49979;BME280;35869;50.990;6.962;2023-08-08T11:31:29;101105.75;;;17.20;93.25
49979;BME280;35869;50.990;6.962;2023-08-08T11:41:44;101104.38;;;17.67;90.59
49979;BME280;35869;50.990;6.962;2023-08-08T11:46:50;101087.63;;;17.42;90.22
49979;BME280;35869;50.990;6.962;2023-08-08T11:57:12;101090.56;;;17.63;91.33
49979;BME280;35869;50.990;6.962;2023-08-08T12:03:03;101076.38;;;17.53;88.27
49979;BME280;35869;50.990;6.962;2023-08-08T12:07:40;101077.13;;;17.68;86.78
49979;BME280;35869;50.990;6.962;2023-08-08T12:12:40;101068.41;;;17.80;88.30
49979;BME280;35869;50.990;6.962;2023-08-08T12:17:42;101070.91;;;17.69;89.00
49979;BME280;35869;50.990;6.962;2023-08-08T12:22:42;101063.66;;;17.59;89.47
49979;BME280;35869;50.990;6.962;2023-08-08T12:27:43;101068.28;;;17.69;85.24
49979;BME280;35869;50.990;6.962;2023-08-08T12:32:43;101081.56;;;17.80;86.73
49979;BME280;35869;50.990;6.962;2023-08-08T12:37:44;101095.66;;;17.79;86.33
49979;BME280;35869;50.990;6.962;2023-08-08T12:42:44;101079.75;;;17.42;86.57
49979;BME280;35869;50.990;6.962;2023-08-08T12:47:45;101102.19;;;17.33;91.09
49979;BME280;35869;50.990;6.962;2023-08-08T12:52:45;101111.19;;;17.56;90.62
49979;BME280;35869;50.990;6.962;2023-08-08T12:57:45;101111.03;;;17.32;95.38
49979;BME280;35869;50.990;6.962;2023-08-08T13:02:45;101119.63;;;17.22;98.15
49979;BME280;35869;50.990;6.962;2023-08-08T13:07:51;101101.25;;;17.35;97.64
49979;BME280;35869;50.990;6.962;2023-08-08T13:12:56;101099.56;;;17.33;97.98
49979;BME280;35869;50.990;6.962;2023-08-08T13:17:57;101099.13;;;17.27;98.51
49979;BME280;35869;50.990;6.962;2023-08-08T13:22:57;101092.09;;;17.27;98.98
49979;BME280;35869;50.990;6.962;2023-08-08T13:27:58;101097.19;;;17.43;93.47
49979;BME280;35869;50.990;6.962;2023-08-08T13:32:58;101095.97;;;17.74;92.73
49979;BME280;35869;50.990;6.962;2023-08-08T13:37:58;101085.97;;;17.92;91.96
49979;BME280;35869;50.990;6.962;2023-08-08T13:42:58;101085.13;;;17.66;96.88
49979;BME280;35869;50.990;6.962;2023-08-08T13:47:59;101085.25;;;17.90;97.21
49979;BME280;35869;50.990;6.962;2023-08-08T13:52:59;101073.69;;;17.80;89.45
49979;BME280;35869;50.990;6.962;2023-08-08T13:58:00;101098.53;;;17.89;91.08
49979;BME280;35869;50.990;6.962;2023-08-08T14:03:01;101087.97;;;18.01;89.72
49979;BME280;35869;50.990;6.962;2023-08-08T14:08:03;101093.78;;;18.06;90.51
49979;BME280;35869;50.990;6.962;2023-08-08T14:13:04;101092.19;;;18.04;88.80
49979;BME280;35869;50.990;6.962;2023-08-08T14:18:04;101092.25;;;18.28;87.11
49979;BME280;35869;50.990;6.962;2023-08-08T14:23:04;101081.63;;;18.29;86.08
49979;BME280;35869;50.990;6.962;2023-08-08T14:28:05;101091.97;;;18.20;90.24
49979;BME280;35869;50.990;6.962;2023-08-08T14:33:05;101086.91;;;18.17;86.46
49979;BME280;35869;50.990;6.962;2023-08-08T14:38:05;101080.66;;;18.43;84.47
49979;BME280;35869;50.990;6.962;2023-08-08T14:43:05;101080.25;;;18.73;87.08
49979;BME280;35869;50.990;6.962;2023-08-08T14:48:06;101091.75;;;18.59;86.32
49979;BME280;35869;50.990;6.962;2023-08-08T14:53:06;101081.03;;;18.50;84.90
49979;BME280;35869;50.990;6.962;2023-08-08T14:58:06;101097.84;;;18.73;88.23
49979;BME280;35869;50.990;6.962;2023-08-08T15:03:09;101101.56;;;18.94;84.04
49979;BME280;35869;50.990;6.962;2023-08-08T15:08:10;101096.94;;;18.48;83.99
49979;BME280;35869;50.990;6.962;2023-08-08T15:13:10;101100.31;;;18.87;81.70
49979;BME280;35869;50.990;6.962;2023-08-08T15:18:10;101096.56;;;19.02;75.47
49979;BME280;35869;50.990;6.962;2023-08-08T15:23:11;101086.19;;;19.12;82.63
49979;BME280;35869;50.990;6.962;2023-08-08T15:28:11;101074.84;;;18.99;81.53
49979;BME280;35869;50.990;6.962;2023-08-08T15:33:11;101078.78;;;19.28;77.08
49979;BME280;35869;50.990;6.962;2023-08-08T15:38:11;101071.50;;;18.97;81.23
49979;BME280;35869;50.990;6.962;2023-08-08T15:43:12;101074.72;;;18.89;79.92
49979;BME280;35869;50.990;6.962;2023-08-08T15:48:12;101069.31;;;19.14;81.98
49979;BME280;35869;50.990;6.962;2023-08-08T15:53:12;101066.13;;;18.98;81.81
49979;BME280;35869;50.990;6.962;2023-08-08T15:58:12;101055.50;;;19.00;82.13
49979;BME280;35869;50.990;6.962;2023-08-08T16:03:13;101066.31;;;19.19;80.49
49979;BME280;35869;50.990;6.962;2023-08-08T16:08:13;101066.97;;;18.99;79.88
49979;BME280;35869;50.990;6.962;2023-08-08T16:13:13;101074.19;;;19.08;78.46
49979;BME280;35869;50.990;6.962;2023-08-08T16:18:13;101069.38;;;19.02;78.01
49979;BME280;35869;50.990;6.962;2023-08-08T16:23:15;101069.75;;;19.08;81.16
49979;BME280;35869;50.990;6.962;2023-08-08T16:28:15;101068.59;;;19.12;76.57
49979;BME280;35869;50.990;6.962;2023-08-08T16:33:15;101078.84;;;19.04;78.08
49979;BME280;35869;50.990;6.962;2023-08-08T16:38:15;101075.88;;;19.09;75.58
49979;BME280;35869;50.990;6.962;2023-08-08T16:43:16;101080.50;;;19.05;81.10
49979;BME280;35869;50.990;6.962;2023-08-08T16:48:16;101085.00;;;18.92;80.62
49979;BME280;35869;50.990;6.962;2023-08-08T16:53:16;101083.28;;;18.80;82.32
49979;BME280;35869;50.990;6.962;2023-08-08T16:58:18;101093.31;;;18.99;84.49
49979;BME280;35869;50.990;6.962;2023-08-08T17:03:18;101083.34;;;18.54;82.96
49979;BME280;35869;50.990;6.962;2023-08-08T17:08:18;101085.59;;;18.84;80.29
49979;BME280;35869;50.990;6.962;2023-08-08T17:13:19;101089.13;;;18.59;83.46
49979;BME280;35869;50.990;6.962;2023-08-08T17:18:19;101081.81;;;18.76;81.56
49979;BME280;35869;50.990;6.962;2023-08-08T17:23:19;101072.06;;;18.52;82.79
49979;BME280;35869;50.990;6.962;2023-08-08T17:28:20;101074.56;;;18.67;82.93
49979;BME280;35869;50.990;6.962;2023-08-08T17:33:20;101057.78;;;18.44;84.41
49979;BME280;35869;50.990;6.962;2023-08-08T17:38:20;101058.91;;;18.52;83.84
49979;BME280;35869;50.990;6.962;2023-08-08T17:43:20;101071.41;;;18.61;85.47
49979;BME280;35869;50.990;6.962;2023-08-08T17:48:20;101061.97;;;18.46;83.62
49979;BME280;35869;50.990;6.962;2023-08-08T17:53:21;101053.66;;;18.52;82.29
49979;BME280;35869;50.990;6.962;2023-08-08T17:58:21;101046.81;;;18.50;83.94
49979;BME280;35869;50.990;6.962;2023-08-08T18:03:21;101044.47;;;18.58;82.16
49979;BME280;35869;50.990;6.962;2023-08-08T18:08:21;101037.75;;;18.54;84.46
49979;BME280;35869;50.990;6.962;2023-08-08T18:13:22;101045.31;;;18.58;84.87
49979;BME280;35869;50.990;6.962;2023-08-08T18:18:22;101050.47;;;18.36;86.76
49979;BME280;35869;50.990;6.962;2023-08-08T18:23:22;101051.25;;;18.49;83.23
49979;BME280;35869;50.990;6.962;2023-08-08T18:28:22;101055.47;;;18.39;86.09
49979;BME280;35869;50.990;6.962;2023-08-08T18:33:23;101055.31;;;18.29;87.43
49979;BME280;35869;50.990;6.962;2023-08-08T18:38:23;101057.22;;;18.15;84.15
49979;BME280;35869;50.990;6.962;2023-08-08T18:43:24;101050.41;;;18.12;83.64
49979;BME280;35869;50.990;6.962;2023-08-08T18:48:24;101056.28;;;18.16;85.77
49979;BME280;35869;50.990;6.962;2023-08-08T18:53:24;101058.72;;;17.93;84.70
49979;BME280;35869;50.990;6.962;2023-08-08T18:58:24;101062.53;;;18.02;86.53
49979;BME280;35869;50.990;6.962;2023-08-08T19:03:25;101065.34;;;17.99;86.25
49979;BME280;35869;50.990;6.962;2023-08-08T19:08:25;101067.56;;;17.92;85.11
49979;BME280;35869;50.990;6.962;2023-08-08T19:13:25;101060.44;;;17.94;86.50
49979;BME280;35869;50.990;6.962;2023-08-08T19:18:25;101043.59;;;17.97;85.78
49979;BME280;35869;50.990;6.962;2023-08-08T19:23:26;101048.63;;;17.87;87.83
49979;BME280;35869;50.990;6.962;2023-08-08T19:28:26;101051.25;;;17.87;86.50
49979;BME280;35869;50.990;6.962;2023-08-08T19:33:26;101057.38;;;17.75;87.97
49979;BME280;35869;50.990;6.962;2023-08-08T19:38:26;101062.59;;;17.62;87.93
49979;BME280;35869;50.990;6.962;2023-08-08T19:43:27;101062.31;;;17.67;89.00
49979;BME280;35869;50.990;6.962;2023-08-08T19:48:27;101063.13;;;17.54;89.00
49979;BME280;35869;50.990;6.962;2023-08-08T19:53:27;101069.19;;;17.29;92.25
49979;BME280;35869;50.990;6.962;2023-08-08T19:58:27;101072.75;;;17.28;93.67
49979;BME280;35869;50.990;6.962;2023-08-08T20:03:28;101085.59;;;17.33;93.37
49979;BME280;35869;50.990;6.962;2023-08-08T20:08:28;101079.47;;;17.20;95.34
49979;BME280;35869;50.990;6.962;2023-08-08T20:13:28;101067.50;;;17.28;96.15
49979;BME280;35869;50.990;6.962;2023-08-08T20:18:28;101062.97;;;17.18;95.87
49979;BME280;35869;50.990;6.962;2023-08-08T20:23:28;101059.69;;;17.01;98.66
49979;BME280;35869;50.990;6.962;2023-08-08T20:28:29;101054.47;;;17.14;98.30
49979;BME280;35869;50.990;6.962;2023-08-08T20:33:29;101063.28;;;17.13;97.91
49979;BME280;35869;50.990;6.962;2023-08-08T20:38:29;101064.13;;;17.14;98.30
49979;BME280;35869;50.990;6.962;2023-08-08T20:43:30;101069.75;;;16.95;100.00
49979;BME280;35869;50.990;6.962;2023-08-08T20:48:30;101068.69;;;16.97;100.00
49979;BME280;35869;50.990;6.962;2023-08-08T20:53:30;101069.94;;;16.92;100.00
49979;BME280;35869;50.990;6.962;2023-08-08T20:58:30;101068.25;;;16.91;100.00
49979;BME280;35869;50.990;6.962;2023-08-08T21:03:30;101056.78;;;16.79;100.00
49979;BME280;35869;50.990;6.962;2023-08-08T21:08:31;101044.09;;;16.86;100.00
49979;BME280;35869;50.990;6.962;2023-08-08T21:13:31;101025.28;;;16.79;100.00
49979;BME280;35869;50.990;6.962;2023-08-08T21:18:31;101017.81;;;16.73;100.00
49979;BME280;35869;50.990;6.962;2023-08-08T21:23:31;101012.91;;;16.67;100.00
49979;BME280;35869;50.990;6.962;2023-08-08T21:28:31;101010.47;;;16.64;100.00
49979;BME280;35869;50.990;6.962;2023-08-08T21:33:32;101011.63;;;16.60;100.00
49979;BME280;35869;50.990;6.962;2023-08-08T21:38:32;101017.28;;;16.53;100.00
49979;BME280;35869;50.990;6.962;2023-08-08T21:43:32;101027.00;;;16.51;100.00
49979;BME280;35869;50.990;6.962;2023-08-08T21:48:32;101020.47;;;16.44;100.00
49979;BME280;35869;50.990;6.962;2023-08-08T21:53:34;101009.16;;;16.44;100.00
49979;BME280;35869;50.990;6.962;2023-08-08T21:58:34;101008.50;;;16.40;100.00
49979;BME280;35869;50.990;6.962;2023-08-08T22:03:34;100995.59;;;16.37;100.00
49979;BME280;35869;50.990;6.962;2023-08-08T22:08:35;100990.53;;;16.34;100.00
49979;BME280;35869;50.990;6.962;2023-08-08T22:13:35;100975.94;;;16.30;100.00
49979;BME280;35869;50.990;6.962;2023-08-08T22:18:35;100969.94;;;16.28;100.00
49979;BME280;35869;50.990;6.962;2023-08-08T22:23:36;100980.63;;;16.25;100.00
49979;BME280;35869;50.990;6.962;2023-08-08T22:28:36;100970.53;;;16.19;100.00
49979;BME280;35869;50.990;6.962;2023-08-08T22:33:36;100960.06;;;16.19;100.00
49979;BME280;35869;50.990;6.962;2023-08-08T22:38:37;100952.38;;;16.16;100.00
49979;BME280;35869;50.990;6.962;2023-08-08T22:43:37;100948.91;;;16.15;100.00
49979;BME280;35869;50.990;6.962;2023-08-08T23:05:53;100921.41;;;16.08;100.00
49979;BME280;35869;50.990;6.962;2023-08-08T23:10:57;100914.38;;;16.09;100.00
49979;BME280;35869;50.990;6.962;2023-08-08T23:15:58;100918.88;;;16.07;100.00
49979;BME280;35869;50.990;6.962;2023-08-08T23:21:07;100922.53;;;16.04;100.00
49979;BME280;35869;50.990;6.962;2023-08-08T23:26:21;100915.09;;;16.11;100.00
49979;BME280;35869;50.990;6.962;2023-08-08T23:31:21;100912.97;;;16.03;100.00
49979;BME280;35869;50.990;6.962;2023-08-08T23:36:22;100913.81;;;16.04;100.00
49979;BME280;35869;50.990;6.962;2023-08-08T23:41:22;100900.81;;;16.02;100.00
49979;BME280;35869;50.990;6.962;2023-08-08T23:46:22;100895.66;;;16.00;100.00
49979;BME280;35869;50.990;6.962;2023-08-08T23:51:22;100896.53;;;16.01;100.00
49979;BME280;35869;50.990;6.962;2023-08-08T23:56:23;100907.28;;;15.96;100.00
